sensor_id;sensor_type;location;lat;lon;timestamp;temperature;humidity
67165;SHT31;54093;50.014;19.984;2023-11-19T00:03:53;2.06;82.92
67165;SHT31;54093;50.014;19.984;2023-11-19T00:13:14;2.08;82.96
67165;SHT31;54093;50.014;19.984;2023-11-19T00:22:35;2.23;84.28
67165;SHT31;54093;50.014;19.984;2023-11-19T00:31:56;2.14;83.09
67165;SHT31;54093;50.014;19.984;2023-11-19T00:41:17;2.22;84.33
67165;SHT31;54093;50.014;19.984;2023-11-19T00:50:38;2.19;83.70
67165;SHT31;54093;50.014;19.984;2023-11-19T01:00:04;2.14;82.92
67165;SHT31;54093;50.014;19.984;2023-11-19T01:09:35;2.06;82.69
67165;SHT31;54093;50.014;19.984;2023-11-19T01:18:56;2.25;84.13
67165;SHT31;54093;50.014;19.984;2023-11-19T01:28:17;2.36;84.53
67165;SHT31;54093;50.014;19.984;2023-11-19T01:37:39;2.36;83.66
67165;SHT31;54093;50.014;19.984;2023-11-19T01:47:01;2.28;82.18
67165;SHT31;54093;50.014;19.984;2023-11-19T01:56:23;2.28;83.66
67165;SHT31;54093;50.014;19.984;2023-11-19T02:05:47;2.25;83.03
67165;SHT31;54093;50.014;19.984;2023-11-19T02:15:10;2.14;81.77
67165;SHT31;54093;50.014;19.984;2023-11-19T02:24:32;2.11;82.23
67165;SHT31;54093;50.014;19.984;2023-11-19T02:33:55;2.18;83.41
67165;SHT31;54093;50.014;19.984;2023-11-19T02:43:15;2.29;84.00
67165;SHT31;54093;50.014;19.984;2023-11-19T02:52:37;2.36;83.98
67165;SHT31;54093;50.014;19.984;2023-11-19T03:01:58;2.37;84.50
67165;SHT31;54093;50.014;19.984;2023-11-19T03:11:20;2.40;84.50
67165;SHT31;54093;50.014;19.984;2023-11-19T03:20:41;2.43;84.73
67165;SHT31;54093;50.014;19.984;2023-11-19T03:30:03;2.37;83.77
67165;SHT31;54093;50.014;19.984;2023-11-19T03:39:25;2.35;84.64
67165;SHT31;54093;50.014;19.984;2023-11-19T03:48:48;2.40;85.05
67165;SHT31;54093;50.014;19.984;2023-11-19T03:58:09;2.35;83.94
67165;SHT31;54093;50.014;19.984;2023-11-19T04:07:35;2.29;84.38
67165;SHT31;54093;50.014;19.984;2023-11-19T04:16:57;2.21;84.26
67165;SHT31;54093;50.014;19.984;2023-11-19T04:26:17;2.29;84.89
67165;SHT31;54093;50.014;19.984;2023-11-19T04:35:39;2.26;83.99
67165;SHT31;54093;50.014;19.984;2023-11-19T04:45:00;2.16;83.60
67165;SHT31;54093;50.014;19.984;2023-11-19T04:54:21;2.28;84.83
67165;SHT31;54093;50.014;19.984;2023-11-19T05:03:42;2.29;84.68
67165;SHT31;54093;50.014;19.984;2023-11-19T05:13:03;2.30;84.86
67165;SHT31;54093;50.014;19.984;2023-11-19T05:22:24;2.35;85.38
67165;SHT31;54093;50.014;19.984;2023-11-19T05:31:46;2.35;85.69
67165;SHT31;54093;50.014;19.984;2023-11-19T05:41:08;2.37;85.39
67165;SHT31;54093;50.014;19.984;2023-11-19T05:50:29;2.25;84.26
67165;SHT31;54093;50.014;19.984;2023-11-19T05:59:50;2.18;84.27
67165;SHT31;54093;50.014;19.984;2023-11-19T06:09:11;2.12;84.14
67165;SHT31;54093;50.014;19.984;2023-11-19T06:18:33;1.93;82.92
67165;SHT31;54093;50.014;19.984;2023-11-19T06:27:55;1.95;84.78
67165;SHT31;54093;50.014;19.984;2023-11-19T06:37:17;2.05;85.20
67165;SHT31;54093;50.014;19.984;2023-11-19T06:46:49;2.08;84.70
67165;SHT31;54093;50.014;19.984;2023-11-19T06:56:23;2.06;85.19
67165;SHT31;54093;50.014;19.984;2023-11-19T07:05:45;2.21;85.74
67165;SHT31;54093;50.014;19.984;2023-11-19T07:15:06;2.22;84.69
67165;SHT31;54093;50.014;19.984;2023-11-19T07:24:27;2.28;85.11
67165;SHT31;54093;50.014;19.984;2023-11-19T07:33:49;2.26;84.34
67165;SHT31;54093;50.014;19.984;2023-11-19T07:43:14;2.35;83.26
67165;SHT31;54093;50.014;19.984;2023-11-19T07:52:41;2.36;83.90
67165;SHT31;54093;50.014;19.984;2023-11-19T08:02:26;2.47;82.80
67165;SHT31;54093;50.014;19.984;2023-11-19T08:12:19;2.57;82.42
67165;SHT31;54093;50.014;19.984;2023-11-19T08:21:53;2.65;81.12
67165;SHT31;54093;50.014;19.984;2023-11-19T08:31:34;2.72;81.59
67165;SHT31;54093;50.014;19.984;2023-11-19T08:41:27;2.80;79.57
67165;SHT31;54093;50.014;19.984;2023-11-19T08:51:14;2.85;80.37
67165;SHT31;54093;50.014;19.984;2023-11-19T09:01:14;2.95;80.40
67165;SHT31;54093;50.014;19.984;2023-11-19T09:10:35;3.05;79.68
67165;SHT31;54093;50.014;19.984;2023-11-19T09:19:57;3.08;78.57
67165;SHT31;54093;50.014;19.984;2023-11-19T09:29:27;3.14;79.15
67165;SHT31;54093;50.014;19.984;2023-11-19T09:39:07;3.26;79.60
67165;SHT31;54093;50.014;19.984;2023-11-19T09:48:35;3.31;78.56
67165;SHT31;54093;50.014;19.984;2023-11-19T09:57:58;3.38;77.98
67165;SHT31;54093;50.014;19.984;2023-11-19T10:07:32;3.52;78.16
67165;SHT31;54093;50.014;19.984;2023-11-19T10:17:03;3.66;77.83
67165;SHT31;54093;50.014;19.984;2023-11-19T10:26:27;3.77;78.30
67165;SHT31;54093;50.014;19.984;2023-11-19T10:35:53;3.91;77.15
67165;SHT31;54093;50.014;19.984;2023-11-19T10:45:23;3.95;74.52
67165;SHT31;54093;50.014;19.984;2023-11-19T10:54:49;4.14;74.88
67165;SHT31;54093;50.014;19.984;2023-11-19T11:04:22;4.15;71.77
67165;SHT31;54093;50.014;19.984;2023-11-19T11:13:46;4.15;72.74
67165;SHT31;54093;50.014;19.984;2023-11-19T11:23:39;4.27;73.48
67165;SHT31;54093;50.014;19.984;2023-11-19T11:43:47;4.35;72.30
67165;SHT31;54093;50.014;19.984;2023-11-19T11:53:13;4.34;71.88
67165;SHT31;54093;50.014;19.984;2023-11-19T12:02:35;4.31;73.59
67165;SHT31;54093;50.014;19.984;2023-11-19T12:12:23;4.31;74.13
67165;SHT31;54093;50.014;19.984;2023-11-19T12:21:53;4.12;77.72
67165;SHT31;54093;50.014;19.984;2023-11-19T12:31:24;4.00;78.35
67165;SHT31;54093;50.014;19.984;2023-11-19T12:41:10;3.91;79.05
67165;SHT31;54093;50.014;19.984;2023-11-19T12:50:55;3.71;80.72
67165;SHT31;54093;50.014;19.984;2023-11-19T13:00:22;3.46;81.35
67165;SHT31;54093;50.014;19.984;2023-11-19T13:09:43;3.32;82.67
67165;SHT31;54093;50.014;19.984;2023-11-19T13:19:04;3.31;83.32
67165;SHT31;54093;50.014;19.984;2023-11-19T13:28:37;3.33;83.44
67165;SHT31;54093;50.014;19.984;2023-11-19T13:37:59;3.38;84.04
67165;SHT31;54093;50.014;19.984;2023-11-19T13:47:20;3.36;84.13
67165;SHT31;54093;50.014;19.984;2023-11-19T13:56:41;3.33;84.71
67165;SHT31;54093;50.014;19.984;2023-11-19T14:06:02;3.40;84.95
67165;SHT31;54093;50.014;19.984;2023-11-19T14:15:23;3.35;84.08
67165;SHT31;54093;50.014;19.984;2023-11-19T14:24:44;3.26;84.18
67165;SHT31;54093;50.014;19.984;2023-11-19T14:34:05;3.32;84.84
67165;SHT31;54093;50.014;19.984;2023-11-19T14:43:29;3.38;85.07
67165;SHT31;54093;50.014;19.984;2023-11-19T14:52:51;3.40;85.02
67165;SHT31;54093;50.014;19.984;2023-11-19T15:02:11;3.32;84.77
67165;SHT31;54093;50.014;19.984;2023-11-19T15:11:35;3.26;84.53
67165;SHT31;54093;50.014;19.984;2023-11-19T15:20:56;3.33;85.60
67165;SHT31;54093;50.014;19.984;2023-11-19T15:30:18;3.39;86.27
67165;SHT31;54093;50.014;19.984;2023-11-19T15:39:39;3.40;86.15
67165;SHT31;54093;50.014;19.984;2023-11-19T15:49:00;3.35;86.24
67165;SHT31;54093;50.014;19.984;2023-11-19T15:58:21;3.29;86.31
67165;SHT31;54093;50.014;19.984;2023-11-19T16:07:45;3.38;86.96
67165;SHT31;54093;50.014;19.984;2023-11-19T16:17:06;3.43;87.20
67165;SHT31;54093;50.014;19.984;2023-11-19T16:26:28;3.44;87.23
67165;SHT31;54093;50.014;19.984;2023-11-19T16:35:51;3.51;87.40
67165;SHT31;54093;50.014;19.984;2023-11-19T16:45:14;3.63;87.53
67165;SHT31;54093;50.014;19.984;2023-11-19T16:54:35;3.74;87.70
67165;SHT31;54093;50.014;19.984;2023-11-19T17:04:00;3.80;87.60
67165;SHT31;54093;50.014;19.984;2023-11-19T17:13:21;3.86;87.53
67165;SHT31;54093;50.014;19.984;2023-11-19T17:22:43;3.89;87.97
67165;SHT31;54093;50.014;19.984;2023-11-19T17:32:05;3.91;88.07
67165;SHT31;54093;50.014;19.984;2023-11-19T17:41:29;3.97;88.16
67165;SHT31;54093;50.014;19.984;2023-11-19T17:50:51;4.04;87.78
67165;SHT31;54093;50.014;19.984;2023-11-19T18:00:16;4.02;87.47
67165;SHT31;54093;50.014;19.984;2023-11-19T18:09:38;4.00;88.19
67165;SHT31;54093;50.014;19.984;2023-11-19T18:19:00;4.04;88.95
67165;SHT31;54093;50.014;19.984;2023-11-19T18:28:22;4.22;88.11
67165;SHT31;54093;50.014;19.984;2023-11-19T18:37:46;4.25;87.70
67165;SHT31;54093;50.014;19.984;2023-11-19T18:47:08;4.42;87.31
67165;SHT31;54093;50.014;19.984;2023-11-19T18:56:29;4.56;87.45
67165;SHT31;54093;50.014;19.984;2023-11-19T19:05:52;4.84;86.97
67165;SHT31;54093;50.014;19.984;2023-11-19T19:15:15;5.00;86.54
67165;SHT31;54093;50.014;19.984;2023-11-19T19:24:38;5.04;86.38
67165;SHT31;54093;50.014;19.984;2023-11-19T19:34:00;5.13;86.14
67165;SHT31;54093;50.014;19.984;2023-11-19T19:43:25;5.11;85.90
67165;SHT31;54093;50.014;19.984;2023-11-19T19:52:47;5.16;85.82
67165;SHT31;54093;50.014;19.984;2023-11-19T20:02:17;5.13;86.01
67165;SHT31;54093;50.014;19.984;2023-11-19T20:11:40;5.18;86.09
67165;SHT31;54093;50.014;19.984;2023-11-19T20:21:05;5.28;85.22
67165;SHT31;54093;50.014;19.984;2023-11-19T20:30:58;5.31;85.26
67165;SHT31;54093;50.014;19.984;2023-11-19T20:40:25;5.30;84.97
67165;SHT31;54093;50.014;19.984;2023-11-19T20:49:52;5.38;84.75
67165;SHT31;54093;50.014;19.984;2023-11-19T20:59:13;5.49;84.36
67165;SHT31;54093;50.014;19.984;2023-11-19T21:08:39;5.54;84.34
67165;SHT31;54093;50.014;19.984;2023-11-19T21:18:05;5.62;84.75
67165;SHT31;54093;50.014;19.984;2023-11-19T21:27:33;5.58;85.17
67165;SHT31;54093;50.014;19.984;2023-11-19T21:37:08;5.65;85.14
67165;SHT31;54093;50.014;19.984;2023-11-19T21:46:33;5.55;85.87
67165;SHT31;54093;50.014;19.984;2023-11-19T21:55:55;5.48;86.18
67165;SHT31;54093;50.014;19.984;2023-11-19T22:05:19;5.38;87.16
67165;SHT31;54093;50.014;19.984;2023-11-19T22:14:42;5.39;87.85
67165;SHT31;54093;50.014;19.984;2023-11-19T22:24:09;5.54;87.87
67165;SHT31;54093;50.014;19.984;2023-11-19T22:33:36;5.60;87.95
67165;SHT31;54093;50.014;19.984;2023-11-19T22:42:58;5.62;87.79
67165;SHT31;54093;50.014;19.984;2023-11-19T22:52:19;5.70;87.58
67165;SHT31;54093;50.014;19.984;2023-11-19T23:01:41;5.75;87.49
67165;SHT31;54093;50.014;19.984;2023-11-19T23:11:16;5.72;87.51
67165;SHT31;54093;50.014;19.984;2023-11-19T23:20:42;5.75;87.60
67165;SHT31;54093;50.014;19.984;2023-11-19T23:30:07;5.76;87.58
67165;SHT31;54093;50.014;19.984;2023-11-19T23:39:30;6.03;86.33
67165;SHT31;54093;50.014;19.984;2023-11-19T23:48:52;5.96;86.89
67165;SHT31;54093;50.014;19.984;2023-11-19T23:58:19;5.86;87.48
